Time;durP1;ratioP1;P1;durP2;ratioP2;P2;SDS_P1;SDS_P2;PMS_P1;PMS_P2;Temp;Humidity;BMP_temperature;BMP_pressure;BME280_temperature;BME280_humidity;BME280_pressure;Samples;Min_cycle;Max_cycle;Signal;HPM_P1;HPM_P2
2023/03/22 12:05:42;;;;;;;1.27;0.70;;;13.00;99.90;;;;;;4204823;23;20231;-75
2023/03/22 12:08:16;;;;;;;2.03;0.70;;;13.10;99.90;;;;;;4945814;28;20470;-73
2023/03/22 12:10:46;;;;;;;4.00;0.93;;;13.40;99.90;;;;;;4946506;28;20236;-72
2023/03/22 12:13:19;;;;;;;2.97;0.70;;;13.70;99.90;;;;;;4942162;28;20662;-72
2023/03/22 12:15:51;;;;;;;2.57;0.90;;;13.80;99.90;;;;;;4945825;28;20212;-73
2023/03/22 12:18:26;;;;;;;2.77;0.70;;;13.80;99.90;;;;;;4948223;28;20524;-72
2023/03/22 12:20:57;;;;;;;2.20;0.77;;;13.80;99.90;;;;;;4937918;28;20263;-72
2023/03/22 12:23:27;;;;;;;4.20;0.87;;;13.80;99.90;;;;;;4947203;28;20226;-72
2023/03/22 12:25:57;;;;;;;2.93;1.23;;;13.70;99.90;;;;;;4938544;28;20216;-70
2023/03/22 12:28:30;;;;;;;1.77;0.70;;;13.70;99.90;;;;;;4945162;29;20204;-72
2023/03/22 12:30:59;;;;;;;3.03;0.83;;;13.80;99.90;;;;;;4949578;29;20235;-71
2023/03/22 12:33:29;;;;;;;2.47;0.70;;;13.80;99.90;;;;;;4947974;28;20235;-72
2023/03/22 12:36:01;;;;;;;1.90;0.83;;;13.80;99.90;;;;;;4948605;28;20207;-72
2023/03/22 12:38:34;;;;;;;3.47;0.70;;;13.70;99.90;;;;;;4947521;28;20634;-72
2023/03/22 12:41:04;;;;;;;3.57;2.37;;;13.60;99.90;;;;;;4946501;28;20216;-73
2023/03/22 12:43:42;;;;;;;2.43;1.00;;;13.40;99.90;;;;;;4947631;28;20224;-76
2023/03/22 12:46:16;;;;;;;2.93;0.90;;;13.20;99.90;;;;;;4951240;28;20673;-78
2023/03/22 12:48:48;;;;;;;2.50;0.87;;;13.10;99.90;;;;;;4945353;28;20213;-74
2023/03/22 12:51:16;;;;;;;6.07;1.30;;;13.00;99.90;;;;;;4951975;29;20240;-72
2023/03/22 12:53:47;;;;;;;3.47;1.10;;;13.00;99.90;;;;;;4949987;29;20224;-81
2023/03/22 12:56:17;;;;;;;4.83;0.90;;;13.10;99.90;;;;;;4951672;28;20208;-72
2023/03/22 12:58:49;;;;;;;4.80;1.10;;;13.00;99.90;;;;;;4941428;29;20276;-73
2023/03/22 13:01:28;;;;;;;3.17;1.40;;;12.90;99.90;;;;;;4938154;29;20656;-78
2023/03/22 13:03:56;;;;;;;1.93;1.00;;;12.70;99.90;;;;;;4949752;28;20232;-74
2023/03/22 13:06:35;;;;;;;3.93;1.40;;;12.60;99.90;;;;;;4953533;28;20266;-75
2023/03/22 13:09:15;;;;;;;3.47;1.10;;;12.60;99.90;;;;;;4954061;28;20578;-78
2023/03/22 13:11:44;;;;;;;4.57;1.20;;;12.60;99.90;;;;;;4951018;28;20283;-75
2023/03/22 13:14:54;;;;;;;2.90;1.23;;;12.70;99.90;;;;;;4953864;28;20563;-82
2023/03/22 13:17:38;;;;;;;3.80;1.23;;;12.70;99.90;;;;;;4954058;28;20579;-74
2023/03/22 13:20:27;;;;;;;4.63;0.90;;;12.60;99.90;;;;;;4953431;28;20211;-76
2023/03/22 13:23:28;;;;;;;2.90;1.60;;;12.50;99.90;;;;;;4954491;28;20235;-77
2023/03/22 13:26:01;;;;;;;2.97;1.00;;;12.50;99.90;;;;;;4954098;28;20219;-76
2023/03/22 13:28:29;;;;;;;3.93;1.00;;;12.60;99.90;;;;;;4954327;28;20208;-78
2023/03/22 13:30:58;;;;;;;2.10;1.10;;;12.70;99.90;;;;;;4955208;28;20338;-77
2023/03/22 13:33:27;;;;;;;2.67;1.00;;;12.70;99.90;;;;;;4957308;28;20228;-73
2023/03/22 13:35:57;;;;;;;5.70;1.20;;;12.70;99.90;;;;;;4957635;28;20624;-75
2023/03/22 13:38:26;;;;;;;1.50;0.83;;;12.90;99.90;;;;;;4957785;28;20655;-72
2023/03/22 13:41:00;;;;;;;4.30;1.20;;;13.00;99.90;;;;;;4957206;28;20212;-72
2023/03/22 13:43:31;;;;;;;3.77;1.00;;;13.10;99.90;;;;;;4957937;28;20770;-84
2023/03/22 13:46:28;;;;;;;3.27;0.90;;;13.00;99.90;;;;;;4958105;28;20208;-85
2023/03/22 13:49:16;;;;;;;3.27;1.20;;;13.10;99.90;;;;;;4958901;28;20204;-83
2023/03/22 13:51:44;;;;;;;8.87;1.00;;;12.90;99.90;;;;;;4937944;29;20603;-80
2023/03/22 13:54:22;;;;;;;3.43;0.93;;;12.80;99.90;;;;;;4938511;29;20213;-81
2023/03/22 13:56:57;;;;;;;3.60;1.37;;;12.60;99.90;;;;;;4938527;29;20212;-82
2023/03/22 13:59:29;;;;;;;2.63;1.10;;;12.70;99.90;;;;;;4939611;29;20312;-83
2023/03/22 14:02:00;;;;;;;3.53;1.20;;;12.60;99.90;;;;;;4957393;28;20699;-74
2023/03/22 14:04:33;;;;;;;3.17;1.03;;;12.60;99.90;;;;;;4957296;28;20200;-76
2023/03/22 14:07:07;;;;;;;3.60;1.47;;;12.60;99.90;;;;;;4957038;28;20204;-75
2023/03/22 14:09:42;;;;;;;2.87;1.17;;;12.60;99.90;;;;;;4956779;28;20207;-76
2023/03/22 14:12:17;;;;;;;1.67;1.07;;;12.80;99.90;;;;;;4956850;28;20235;-76
2023/03/22 14:14:48;;;;;;;2.60;1.33;;;12.90;99.90;;;;;;4957437;28;20208;-76
2023/03/22 14:17:21;;;;;;;1.63;1.10;;;12.90;99.90;;;;;;4957205;28;20215;-75
2023/03/22 14:19:51;;;;;;;2.70;1.30;;;12.80;99.90;;;;;;4956874;28;20219;-76
2023/03/22 14:22:27;;;;;;;4.97;1.20;;;12.90;99.90;;;;;;4956790;28;20598;-76
2023/03/22 14:24:55;;;;;;;6.20;1.30;;;12.80;99.90;;;;;;4957433;28;20566;-76
2023/03/22 14:27:25;;;;;;;4.63;1.40;;;12.80;99.90;;;;;;4957279;28;20223;-76
2023/03/22 14:29:53;;;;;;;6.33;1.20;;;12.80;99.90;;;;;;4956687;28;20223;-77
2023/03/22 14:32:28;;;;;;;3.53;1.07;;;12.90;99.90;;;;;;4953110;28;20537;-77
2023/03/22 14:35:00;;;;;;;3.77;0.90;;;13.00;99.90;;;;;;4955329;28;20243;-75
2023/03/22 14:37:27;;;;;;;1.57;1.00;;;13.10;99.90;;;;;;4955066;28;20204;-78
2023/03/22 14:39:54;;;;;;;1.90;1.00;;;13.10;99.90;;;;;;4954455;28;20211;-78
2023/03/22 14:42:29;;;;;;;4.10;1.00;;;13.00;99.90;;;;;;4954461;28;20263;-75
2023/03/22 14:44:58;;;;;;;3.00;1.80;;;13.10;99.90;;;;;;4955846;28;20214;-75
2023/03/22 14:47:28;;;;;;;1.40;1.00;;;13.10;99.90;;;;;;4956385;28;20211;-77
2023/03/22 14:49:57;;;;;;;2.27;1.43;;;13.10;99.90;;;;;;4956424;28;20271;-78
2023/03/22 14:52:26;;;;;;;1.57;1.40;;;13.10;99.90;;;;;;4956386;28;20250;-79
2023/03/22 14:54:58;;;;;;;2.77;1.10;;;13.10;99.90;;;;;;4952177;28;20214;-73
2023/03/22 14:57:27;;;;;;;1.50;1.00;;;13.00;99.90;;;;;;4948269;28;20204;-73
2023/03/22 14:59:57;;;;;;;4.60;1.50;;;12.90;99.90;;;;;;4943234;28;20608;-74
2023/03/22 15:02:34;;;;;;;1.90;1.20;;;12.90;99.90;;;;;;4955097;28;20228;-74
2023/03/22 15:05:01;;;;;;;3.03;1.10;;;13.00;99.90;;;;;;4946404;28;20220;-73
2023/03/22 15:07:28;;;;;;;2.70;1.10;;;12.90;99.90;;;;;;4952590;29;20415;-74
2023/03/22 15:10:11;;;;;;;3.43;1.73;;;12.80;99.90;;;;;;4949126;28;20294;-74
2023/03/22 15:12:39;;;;;;;1.90;1.13;;;12.70;99.90;;;;;;4948020;28;20694;-74
2023/03/22 15:15:07;;;;;;;3.40;1.30;;;12.70;99.90;;;;;;4942002;28;20205;-74
2023/03/22 15:17:36;;;;;;;1.50;1.10;;;12.60;99.90;;;;;;4948990;28;20204;-74
2023/03/22 15:20:05;;;;;;;2.60;1.60;;;12.40;99.90;;;;;;4936703;29;20213;-74
2023/03/22 15:22:32;;;;;;;1.73;1.10;;;12.30;99.90;;;;;;4934965;29;20225;-73
2023/03/22 15:25:01;;;;;;;3.77;1.40;;;12.30;99.90;;;;;;4936682;29;20299;-73
2023/03/22 15:27:30;;;;;;;2.53;1.30;;;12.30;99.90;;;;;;4936625;29;20232;-74
2023/03/22 15:30:00;;;;;;;4.97;1.50;;;12.40;99.90;;;;;;4936673;29;20213;-73
2023/03/22 15:32:27;;;;;;;3.23;1.60;;;12.40;99.90;;;;;;4937013;29;20328;-74
2023/03/22 15:34:55;;;;;;;4.67;1.30;;;12.30;99.90;;;;;;4936786;29;20209;-74
2023/03/22 15:37:28;;;;;;;3.33;1.67;;;12.30;99.90;;;;;;4936579;29;20645;-74
2023/03/22 15:39:56;;;;;;;2.33;1.60;;;12.20;99.90;;;;;;4936715;29;20245;-75
2023/03/22 15:42:30;;;;;;;3.10;1.47;;;12.20;99.90;;;;;;4936927;29;20236;-74
2023/03/22 15:45:01;;;;;;;2.80;1.77;;;12.10;99.90;;;;;;4936587;29;20295;-74
2023/03/22 15:47:30;;;;;;;3.10;2.10;;;12.10;99.90;;;;;;4936743;29;20204;-74
2023/03/22 15:49:58;;;;;;;2.40;1.33;;;12.10;99.90;;;;;;4936378;29;20201;-74
2023/03/22 15:52:26;;;;;;;9.97;1.80;;;12.00;99.90;;;;;;4936286;29;20241;-74
2023/03/22 15:54:59;;;;;;;4.27;1.83;;;12.00;99.90;;;;;;4936731;29;20220;-74
2023/03/22 15:57:38;;;;;;;2.77;1.80;;;12.00;99.90;;;;;;4936549;29;20297;-76
2023/03/22 16:00:19;;;;;;;2.50;1.53;;;12.00;99.90;;;;;;4936264;29;20215;-74
2023/03/22 16:02:56;;;;;;;4.53;1.73;;;12.10;99.90;;;;;;4936592;29;20237;-74
2023/03/22 16:05:24;;;;;;;3.83;1.83;;;12.00;99.90;;;;;;4936181;29;20220;-73
2023/03/22 16:07:51;;;;;;;4.90;1.90;;;12.00;99.90;;;;;;4936188;29;20287;-74
2023/03/22 16:10:19;;;;;;;3.23;1.90;;;12.00;99.90;;;;;;4936011;29;20209;-74
2023/03/22 16:12:47;;;;;;;3.53;1.77;;;12.00;99.90;;;;;;4935747;29;20252;-74
2023/03/22 16:15:17;;;;;;;6.77;1.73;;;11.90;99.90;;;;;;4936134;29;20216;-74
2023/03/22 16:17:44;;;;;;;3.20;1.50;;;11.90;99.90;;;;;;4936180;29;20209;-74
2023/03/22 16:20:12;;;;;;;3.27;1.60;;;11.90;99.90;;;;;;4936223;29;20571;-74
2023/03/22 16:22:40;;;;;;;4.97;1.80;;;11.90;99.90;;;;;;4935917;29;20229;-74
2023/03/22 16:25:15;;;;;;;6.13;1.57;;;12.00;99.90;;;;;;4935806;29;20229;-74
2023/03/22 16:27:41;;;;;;;3.30;1.67;;;12.10;99.90;;;;;;4936067;29;20208;-74
2023/03/22 16:30:09;;;;;;;4.77;2.17;;;12.00;99.90;;;;;;4935741;29;20212;-74
2023/03/22 16:32:37;;;;;;;3.20;1.83;;;12.00;99.90;;;;;;4935869;29;20236;-74
2023/03/22 16:35:05;;;;;;;2.73;1.63;;;12.00;99.90;;;;;;4935993;29;20205;-74
2023/03/22 16:37:34;;;;;;;4.77;1.73;;;12.00;99.90;;;;;;4936152;29;20711;-74
2023/03/22 16:40:01;;;;;;;4.40;1.70;;;12.10;99.90;;;;;;4935789;29;20209;-73
2023/03/22 16:42:28;;;;;;;4.70;1.50;;;12.10;99.90;;;;;;4935525;29;20235;-75
2023/03/22 16:44:55;;;;;;;8.10;2.00;;;12.00;99.90;;;;;;4936071;29;20212;-74
2023/03/22 16:47:24;;;;;;;6.50;1.60;;;12.00;99.90;;;;;;4935818;29;20668;-74
2023/03/22 16:49:53;;;;;;;7.10;1.70;;;11.90;99.90;;;;;;4935266;29;20295;-73
2023/03/22 16:52:23;;;;;;;3.37;1.60;;;12.00;99.90;;;;;;4934711;29;20240;-74
2023/03/22 16:54:52;;;;;;;4.13;1.57;;;12.00;99.90;;;;;;4935098;29;20218;-74
2023/03/22 16:57:22;;;;;;;4.13;1.70;;;12.00;99.90;;;;;;4935748;29;20690;-74
2023/03/22 16:59:50;;;;;;;3.93;1.60;;;11.90;99.90;;;;;;4935665;29;20217;-73
2023/03/22 17:02:19;;;;;;;5.33;2.07;;;12.00;99.90;;;;;;4935458;29;20225;-74
2023/03/22 17:04:46;;;;;;;5.87;1.57;;;12.00;99.90;;;;;;4935188;29;20885;-75
2023/03/22 17:07:17;;;;;;;3.70;1.80;;;11.90;99.90;;;;;;4938317;29;20219;-74
2023/03/22 17:09:44;;;;;;;5.90;1.77;;;12.00;99.90;;;;;;4939365;29;20671;-77
2023/03/22 17:12:17;;;;;;;3.60;1.70;;;12.00;99.90;;;;;;4939321;29;20332;-74
2023/03/22 17:14:45;;;;;;;5.77;1.77;;;12.00;99.90;;;;;;4939203;29;20232;-75
2023/03/22 17:17:11;;;;;;;3.53;1.53;;;12.00;99.90;;;;;;4939297;29;20213;-75
2023/03/22 17:19:39;;;;;;;3.27;1.50;;;12.00;99.90;;;;;;4939049;29;20215;-74
2023/03/22 17:22:07;;;;;;;1.90;1.57;;;12.00;99.90;;;;;;4938969;29;20237;-74
2023/03/22 17:24:36;;;;;;;2.07;1.33;;;12.00;99.90;;;;;;4938824;29;20220;-74
2023/03/22 17:27:03;;;;;;;3.37;1.50;;;12.20;99.90;;;;;;4938974;29;20211;-74
2023/03/22 17:29:30;;;;;;;4.60;1.60;;;12.10;99.90;;;;;;4938603;29;20220;-73
2023/03/22 17:31:58;;;;;;;5.27;1.40;;;12.10;99.90;;;;;;4938409;29;20245;-74
2023/03/22 17:34:25;;;;;;;2.77;1.23;;;12.00;99.90;;;;;;4939007;29;20219;-74
2023/03/22 17:36:51;;;;;;;4.73;1.60;;;11.90;99.90;;;;;;4939074;29;20212;-74
2023/03/22 17:39:18;;;;;;;4.17;2.07;;;12.00;99.90;;;;;;4938442;29;20660;-74
2023/03/22 17:41:46;;;;;;;5.37;1.60;;;11.90;99.90;;;;;;4938642;29;20205;-74
2023/03/22 17:44:13;;;;;;;2.73;1.70;;;11.90;99.90;;;;;;4938669;29;20235;-75
2023/03/22 17:46:40;;;;;;;3.37;1.70;;;11.90;99.90;;;;;;4938495;29;20215;-75
2023/03/22 17:49:07;;;;;;;5.23;1.57;;;12.00;99.90;;;;;;4938670;29;20571;-75
2023/03/22 17:51:34;;;;;;;4.93;1.87;;;11.90;99.90;;;;;;4938453;29;20231;-74
2023/03/22 17:54:00;;;;;;;3.90;1.37;;;11.90;99.90;;;;;;4938368;29;20236;-73
2023/03/22 17:56:27;;;;;;;2.70;1.57;;;11.80;99.90;;;;;;4938283;29;20216;-74
2023/03/22 17:58:55;;;;;;;4.63;2.13;;;11.90;99.90;;;;;;4937924;29;20209;-75
2023/03/22 18:01:22;;;;;;;5.93;2.13;;;11.90;99.90;;;;;;4939280;29;20220;-76
2023/03/22 18:03:50;;;;;;;7.93;1.70;;;11.90;99.90;;;;;;4938914;29;20599;-75
2023/03/22 18:06:17;;;;;;;3.60;1.73;;;11.90;99.90;;;;;;4938174;29;20216;-74
2023/03/22 18:08:43;;;;;;;3.40;1.60;;;11.90;99.90;;;;;;4938401;29;20213;-74
2023/03/22 18:11:12;;;;;;;3.20;1.70;;;11.90;99.90;;;;;;4938163;29;20217;-74
2023/03/22 18:13:40;;;;;;;9.93;2.47;;;11.90;99.90;;;;;;4937926;29;20245;-74
2023/03/22 18:16:09;;;;;;;7.17;1.97;;;12.00;99.90;;;;;;4938292;29;20209;-75
2023/03/22 18:18:36;;;;;;;6.80;1.83;;;12.10;99.90;;;;;;4937034;29;20208;-75
2023/03/22 18:21:05;;;;;;;3.83;1.70;;;12.10;99.90;;;;;;4938145;29;20216;-75
2023/03/22 18:23:31;;;;;;;9.27;1.97;;;12.20;99.90;;;;;;4937902;29;20722;-75
2023/03/22 18:25:59;;;;;;;3.07;1.50;;;12.20;99.90;;;;;;4938116;29;20211;-76
2023/03/22 18:28:26;;;;;;;8.43;2.63;;;12.20;99.90;;;;;;4937927;29;20215;-75
2023/03/22 18:30:53;;;;;;;4.53;1.70;;;12.20;99.90;;;;;;4938049;29;20231;-77
2023/03/22 18:33:21;;;;;;;1.70;1.40;;;12.30;99.90;;;;;;4938005;29;20240;-77
2023/03/22 18:35:49;;;;;;;2.93;1.60;;;12.40;99.90;;;;;;4937848;29;20216;-76
2023/03/22 18:38:17;;;;;;;2.67;1.53;;;12.30;99.90;;;;;;4937848;29;20208;-74
2023/03/22 18:40:44;;;;;;;1.77;1.53;;;12.40;99.90;;;;;;4936509;29;20672;-75
